createdAt,value
2022-12-25T00:02:20.831Z,18.50
2022-12-25T00:04:47.505Z,16.75
2022-12-25T00:07:14.279Z,18.00
2022-12-25T00:09:40.906Z,17.38
2022-12-25T00:12:07.710Z,16.92
2022-12-25T00:14:34.535Z,16.73
2022-12-25T00:17:01.380Z,18.25
2022-12-25T00:19:28.030Z,16.92
2022-12-25T00:21:54.728Z,16.58
2022-12-25T00:24:21.343Z,17.48
2022-12-25T00:26:48.074Z,18.15
2022-12-25T00:29:14.907Z,17.85
2022-12-25T00:31:41.593Z,17.15
2022-12-25T00:34:08.277Z,16.15
2022-12-25T00:36:41.170Z,16.45
2022-12-25T00:39:08.450Z,15.38
2022-12-25T00:41:53.648Z,16.85
2022-12-25T00:44:20.682Z,17.60
2022-12-25T00:46:47.460Z,16.40
2022-12-25T00:49:14.254Z,16.38
2022-12-25T00:51:41.019Z,16.73
2022-12-25T00:54:08.638Z,16.77
2022-12-25T00:56:35.697Z,17.42
2022-12-25T00:59:02.425Z,16.13
2022-12-25T01:01:29.423Z,15.50
2022-12-25T01:03:56.264Z,15.23
2022-12-25T01:06:23.056Z,16.10
2022-12-25T01:09:09.370Z,16.10
2022-12-25T01:11:36.420Z,15.45
2022-12-25T01:14:03.182Z,16.17
2022-12-25T01:16:30.546Z,16.85
2022-12-25T01:18:57.357Z,15.60
2022-12-25T01:21:24.596Z,18.10
2022-12-25T01:23:52.639Z,16.42
2022-12-25T01:26:23.199Z,16.38
2022-12-25T01:28:51.121Z,18.90
2022-12-25T01:31:21.080Z,18.15
2022-12-25T01:33:48.752Z,17.60
2022-12-25T01:36:24.179Z,18.77
2022-12-25T01:38:52.486Z,19.05
2022-12-25T01:41:22.015Z,19.33
2022-12-25T01:44:05.794Z,18.27
2022-12-25T01:46:32.974Z,17.48
2022-12-25T01:49:04.963Z,17.75
2022-12-25T01:51:35.862Z,19.30
2022-12-25T01:54:07.226Z,17.65
2022-12-25T01:56:36.448Z,18.33
2022-12-25T01:59:06.425Z,17.98
2022-12-25T02:01:33.407Z,17.65
2022-12-25T02:04:09.322Z,15.95
2022-12-25T02:06:36.012Z,16.90
2022-12-25T02:09:03.124Z,18.90
2022-12-25T02:11:48.387Z,16.85
2022-12-25T02:14:15.078Z,17.90
2022-12-25T02:16:57.475Z,19.42
2022-12-25T02:20:02.980Z,17.35
2022-12-25T02:22:56.517Z,17.20
2022-12-25T02:25:56.818Z,16.35
2022-12-25T02:28:30.586Z,16.40
2022-12-25T02:31:03.576Z,16.52
2022-12-25T02:34:03.738Z,16.35
2022-12-25T02:36:51.158Z,15.13
2022-12-25T02:39:58.276Z,14.63
2022-12-25T02:42:55.225Z,14.98
2022-12-25T02:45:50.614Z,15.60
2022-12-25T02:48:39.877Z,15.25
2022-12-25T02:51:29.052Z,14.98
2022-12-25T02:54:17.357Z,13.93
2022-12-25T02:57:06.444Z,15.02
2022-12-25T02:59:56.510Z,16.48
2022-12-25T03:02:43.704Z,16.00
2022-12-25T03:05:33.868Z,15.43
2022-12-25T03:08:06.192Z,14.73
2022-12-25T03:10:54.074Z,14.40
2022-12-25T03:13:24.490Z,12.88
2022-12-25T03:16:10.158Z,14.27
2022-12-25T03:18:36.853Z,15.45
2022-12-25T03:21:21.982Z,14.45
2022-12-25T03:24:22.238Z,13.60
2022-12-25T03:26:55.185Z,13.32
2022-12-25T03:29:52.100Z,13.82
2022-12-25T03:32:38.282Z,13.63
2022-12-25T03:35:31.657Z,13.77
2022-12-25T03:38:19.718Z,13.90
2022-12-25T03:41:31.571Z,13.18
2022-12-25T03:44:22.346Z,13.77
2022-12-25T03:47:17.952Z,14.57
2022-12-25T03:50:08.512Z,14.65
2022-12-25T03:52:56.593Z,14.93
2022-12-25T03:55:43.865Z,15.20
2022-12-25T03:58:39.749Z,13.18
2022-12-25T04:01:25.109Z,15.07
2022-12-25T04:04:10.566Z,14.95
2022-12-25T04:06:55.985Z,14.00
2022-12-25T04:09:41.481Z,14.38
2022-12-25T04:12:26.720Z,15.38
2022-12-25T04:15:11.916Z,14.23
2022-12-25T04:17:57.596Z,14.38
2022-12-25T04:20:43.183Z,14.82
2022-12-25T04:23:28.726Z,14.95
2022-12-25T04:26:16.926Z,14.15
2022-12-25T04:29:02.434Z,13.75
2022-12-25T04:31:47.807Z,14.20
2022-12-25T04:34:33.283Z,13.48
2022-12-25T04:36:59.970Z,15.45
2022-12-25T04:39:26.952Z,13.73
2022-12-25T04:41:53.627Z,14.98
2022-12-25T04:44:20.297Z,14.73
2022-12-25T04:46:47.003Z,13.73
2022-12-25T04:49:13.726Z,14.93
2022-12-25T04:51:40.460Z,14.15
2022-12-25T04:54:07.152Z,15.45
2022-12-25T04:56:34.472Z,14.23
2022-12-25T04:59:03.365Z,14.43
2022-12-25T05:01:30.153Z,15.00
2022-12-25T05:03:57.005Z,15.75
2022-12-25T05:06:23.678Z,14.85
2022-12-25T05:08:50.431Z,15.43
2022-12-25T05:11:17.359Z,14.70
2022-12-25T05:13:44.618Z,15.05
2022-12-25T05:16:20.022Z,15.93
2022-12-25T05:18:50.842Z,15.63
2022-12-25T05:21:17.948Z,16.08
2022-12-25T05:23:50.796Z,16.17
2022-12-25T05:26:20.169Z,15.77
2022-12-25T05:28:47.005Z,16.13
2022-12-25T05:31:13.939Z,16.00
2022-12-25T05:33:41.032Z,18.20
2022-12-25T05:36:10.352Z,17.83
2022-12-25T05:38:37.561Z,17.45
2022-12-25T05:41:04.404Z,18.88
2022-12-25T05:43:31.242Z,19.83
2022-12-25T05:45:58.013Z,16.15
2022-12-25T05:48:24.678Z,18.25
2022-12-25T05:50:51.358Z,17.85
2022-12-25T05:53:18.055Z,19.77
2022-12-25T05:55:44.830Z,19.70
2022-12-25T05:58:12.717Z,19.42
2022-12-25T06:00:40.693Z,21.70
2022-12-25T06:03:07.467Z,19.17
2022-12-25T06:05:34.385Z,22.20
2022-12-25T06:08:01.118Z,21.02
2022-12-25T06:10:27.795Z,20.65
2022-12-25T06:12:54.924Z,22.23
2022-12-25T06:15:21.753Z,22.80
2022-12-25T06:17:48.477Z,22.02
2022-12-25T06:20:15.258Z,20.77
2022-12-25T06:22:41.897Z,21.25
2022-12-25T06:25:09.296Z,23.23
2022-12-25T06:27:35.997Z,20.27
2022-12-25T06:30:03.114Z,20.67
2022-12-25T06:32:29.880Z,20.58
2022-12-25T06:34:56.520Z,17.63
2022-12-25T06:37:23.252Z,21.40
2022-12-25T06:39:50.069Z,20.45
2022-12-25T06:42:16.726Z,22.92
2022-12-25T06:44:43.453Z,21.75
2022-12-25T06:47:10.342Z,21.85
2022-12-25T06:49:37.017Z,20.83
2022-12-25T06:52:03.690Z,21.05
2022-12-25T06:54:30.389Z,21.20
2022-12-25T06:56:57.087Z,21.50
2022-12-25T06:59:23.850Z,21.25
2022-12-25T07:01:53.709Z,21.00
2022-12-25T07:04:32.114Z,21.98
2022-12-25T07:07:08.412Z,20.80
2022-12-25T07:09:36.445Z,20.27
2022-12-25T07:12:13.795Z,19.98
2022-12-25T07:14:40.582Z,19.17
2022-12-25T07:17:07.428Z,18.45
2022-12-25T07:19:35.339Z,17.30
2022-12-25T07:22:05.054Z,18.90
2022-12-25T07:24:31.745Z,19.27
2022-12-25T07:26:58.388Z,16.80
2022-12-25T07:29:25.104Z,18.38
2022-12-25T07:31:51.801Z,19.77
2022-12-25T07:34:18.780Z,19.02
2022-12-25T07:36:46.067Z,18.05
2022-12-25T07:39:13.183Z,18.52
2022-12-25T07:41:40.322Z,18.77
2022-12-25T07:44:07.058Z,20.95
2022-12-25T07:46:33.783Z,16.88
2022-12-25T07:49:01.003Z,18.88
2022-12-25T07:51:30.174Z,17.60
2022-12-25T07:53:57.408Z,17.60
2022-12-25T07:56:24.405Z,15.40
2022-12-25T07:58:51.114Z,15.15
2022-12-25T08:01:21.430Z,17.05
2022-12-25T08:03:55.953Z,16.20
2022-12-25T08:06:25.028Z,15.80
2022-12-25T08:08:51.754Z,15.70
2022-12-25T08:11:18.470Z,15.30
2022-12-25T08:13:45.115Z,16.23
2022-12-25T08:16:12.019Z,15.48
2022-12-25T08:18:39.514Z,15.50
2022-12-25T08:21:12.302Z,12.57
2022-12-25T08:23:41.857Z,12.73
2022-12-25T08:26:13.403Z,13.07
2022-12-25T08:28:40.209Z,11.85
2022-12-25T08:31:14.682Z,11.05
2022-12-25T08:33:41.877Z,12.48
2022-12-25T08:36:11.155Z,12.35
2022-12-25T08:38:38.923Z,10.52
2022-12-25T08:41:06.227Z,11.32
2022-12-25T08:43:32.946Z,10.98
2022-12-25T08:45:59.894Z,10.55
2022-12-25T08:48:27.836Z,9.95
2022-12-25T08:50:54.780Z,10.50
2022-12-25T08:53:22.131Z,10.23
2022-12-25T08:55:48.851Z,10.50
2022-12-25T08:58:16.604Z,9.63
2022-12-25T09:00:43.625Z,10.13
2022-12-25T09:03:10.500Z,9.85
2022-12-25T09:05:37.964Z,9.13
2022-12-25T09:08:04.922Z,10.25
2022-12-25T09:10:35.030Z,9.82
2022-12-25T09:13:02.775Z,9.77
2022-12-25T09:15:29.772Z,9.95
2022-12-25T09:17:56.604Z,9.77
2022-12-25T09:20:23.353Z,9.35
2022-12-25T09:22:50.269Z,8.43
2022-12-25T09:25:17.319Z,9.40
2022-12-25T09:27:44.082Z,8.40
2022-12-25T09:30:11.473Z,9.18
2022-12-25T09:32:40.378Z,8.35
2022-12-25T09:35:08.479Z,8.25
2022-12-25T09:37:35.399Z,8.32
2022-12-25T09:40:02.267Z,8.50
2022-12-25T09:42:31.492Z,7.53
2022-12-25T09:45:03.149Z,8.00
2022-12-25T09:47:33.811Z,7.80
2022-12-25T09:50:12.167Z,7.88
2022-12-25T09:52:41.559Z,7.97
2022-12-25T09:55:14.731Z,8.13
2022-12-25T09:57:45.742Z,7.90
2022-12-25T10:00:18.247Z,7.60
2022-12-25T10:02:57.357Z,7.43
2022-12-25T10:05:47.856Z,6.90
2022-12-25T10:08:35.833Z,7.00
2022-12-25T10:11:27.405Z,7.03
2022-12-25T10:14:15.261Z,7.05
2022-12-25T10:17:17.963Z,7.32
2022-12-25T10:20:03.391Z,7.22
2022-12-25T10:23:00.657Z,7.30
2022-12-25T10:25:27.537Z,7.22
2022-12-25T10:28:04.548Z,7.15
2022-12-25T10:30:32.394Z,6.88
2022-12-25T10:32:59.289Z,6.72
2022-12-25T10:35:28.923Z,6.53
2022-12-25T10:37:59.016Z,6.80
2022-12-25T10:40:28.906Z,6.95
2022-12-25T10:43:04.447Z,7.13
2022-12-25T10:45:31.074Z,6.63
2022-12-25T10:48:07.734Z,7.82
2022-12-25T10:50:34.867Z,7.05
2022-12-25T10:53:05.605Z,6.75
2022-12-25T10:55:33.274Z,6.57
2022-12-25T10:58:02.022Z,6.30
2022-12-25T11:00:31.098Z,6.90
2022-12-25T11:02:58.450Z,6.45
2022-12-25T11:05:35.988Z,6.18
2022-12-25T11:08:03.705Z,6.47
2022-12-25T11:10:44.472Z,6.38
2022-12-25T11:13:24.582Z,6.43
2022-12-25T11:16:25.337Z,5.72
2022-12-25T11:21:34.830Z,6.25
2022-12-25T11:24:20.055Z,5.35
2022-12-25T11:26:55.824Z,5.55
2022-12-25T11:29:40.923Z,5.47
2022-12-25T11:32:16.833Z,6.05
2022-12-25T11:34:46.644Z,5.28
2022-12-25T11:37:20.198Z,5.13
2022-12-25T11:39:47.154Z,5.40
2022-12-25T11:42:28.870Z,6.72
2022-12-25T11:44:55.502Z,6.10
2022-12-25T11:47:30.572Z,6.13
2022-12-25T11:50:27.028Z,6.20
2022-12-25T11:52:55.457Z,5.80
2022-12-25T11:55:39.042Z,6.85
2022-12-25T11:58:21.189Z,6.32
2022-12-25T12:00:51.156Z,6.60
2022-12-25T12:03:36.980Z,5.97
2022-12-25T12:06:33.112Z,5.93
2022-12-25T12:09:41.575Z,5.82
2022-12-25T12:12:26.422Z,5.90
2022-12-25T12:15:00.937Z,6.28
2022-12-25T12:17:27.646Z,6.13
2022-12-25T12:19:54.425Z,5.80
2022-12-25T12:22:26.815Z,6.00
2022-12-25T12:25:01.592Z,6.88
2022-12-25T12:27:40.465Z,6.32
2022-12-25T12:30:22.061Z,5.65
2022-12-25T12:32:52.914Z,5.60
2022-12-25T12:35:32.106Z,5.22
2022-12-25T12:38:02.853Z,5.50
2022-12-25T12:40:38.949Z,5.53
2022-12-25T12:43:23.716Z,5.45
2022-12-25T12:45:56.855Z,5.35
2022-12-25T12:48:28.400Z,5.63
2022-12-25T12:51:13.304Z,5.68
2022-12-25T12:53:42.793Z,5.80
2022-12-25T12:56:18.445Z,5.50
2022-12-25T12:58:50.936Z,6.32
2022-12-25T13:01:18.240Z,6.07
2022-12-25T13:04:00.562Z,7.43
2022-12-25T13:06:40.967Z,6.13
2022-12-25T13:09:22.823Z,6.65
2022-12-25T13:11:50.265Z,5.97
2022-12-25T13:14:21.041Z,7.70
2022-12-25T13:16:50.248Z,10.10
2022-12-25T13:19:24.338Z,7.15
2022-12-25T13:22:01.003Z,9.57
2022-12-25T13:24:30.467Z,9.20
2022-12-25T13:26:58.956Z,7.88
2022-12-25T13:29:31.442Z,7.40
2022-12-25T13:32:00.171Z,9.32
2022-12-25T20:32:23.953Z,30.85
2022-12-25T20:34:51.029Z,20.25
2022-12-25T20:37:17.770Z,23.13
2022-12-25T20:39:44.462Z,26.60
2022-12-25T20:42:11.406Z,26.65
2022-12-25T20:44:38.231Z,25.63
2022-12-25T20:47:05.176Z,28.80
2022-12-25T20:49:32.687Z,23.75
2022-12-25T20:52:04.896Z,19.00
2022-12-25T20:54:32.571Z,27.55
2022-12-25T20:56:59.367Z,27.20
2022-12-25T20:59:25.999Z,22.58
2022-12-25T21:01:55.591Z,30.42
2022-12-25T21:04:22.612Z,23.43
2022-12-25T21:06:49.309Z,18.52
2022-12-25T21:09:15.996Z,19.60
2022-12-25T21:11:42.864Z,18.60
2022-12-25T21:14:09.698Z,18.92
2022-12-25T21:16:36.587Z,23.45
2022-12-25T21:19:03.344Z,19.52
2022-12-25T21:21:29.972Z,20.60
2022-12-25T21:23:57.243Z,22.40
2022-12-25T21:26:29.308Z,20.50
2022-12-25T21:29:00.381Z,27.75
2022-12-25T21:31:28.300Z,18.15
2022-12-25T21:33:57.465Z,20.83
2022-12-25T21:36:28.941Z,21.75
2022-12-25T21:39:02.192Z,23.30
2022-12-25T21:41:30.686Z,28.13
2022-12-25T21:43:57.820Z,21.33
2022-12-25T21:46:25.168Z,25.08
2022-12-25T21:48:52.233Z,22.92
2022-12-25T21:51:43.854Z,18.90
2022-12-25T21:54:11.333Z,19.48
2022-12-25T21:56:44.440Z,20.60
2022-12-25T21:59:17.157Z,23.30
2022-12-25T22:01:44.650Z,22.20
2022-12-25T22:04:12.945Z,22.00
2022-12-25T22:06:58.487Z,19.83
2022-12-25T22:09:25.479Z,21.80
2022-12-25T22:12:10.788Z,26.40
2022-12-25T22:14:55.256Z,19.58
2022-12-25T22:17:44.311Z,23.38
2022-12-25T22:20:18.774Z,23.20
2022-12-25T22:22:45.603Z,31.77
2022-12-25T22:25:13.732Z,26.33
2022-12-25T22:27:42.290Z,27.10
2022-12-25T22:30:16.096Z,28.42
2022-12-25T22:32:43.081Z,24.20
2022-12-25T22:35:12.343Z,24.02
2022-12-25T22:37:40.724Z,25.63
2022-12-25T22:40:09.917Z,25.13
2022-12-25T22:42:37.126Z,25.80
2022-12-25T22:45:04.455Z,29.85
2022-12-25T22:47:31.375Z,26.67
2022-12-25T22:49:58.226Z,20.90
2022-12-25T22:52:24.991Z,19.20
2022-12-25T22:54:51.889Z,18.27
2022-12-25T22:57:18.589Z,17.00
2022-12-25T22:59:45.307Z,18.73
2022-12-25T23:02:12.199Z,18.05
2022-12-25T23:04:39.035Z,18.15
2022-12-25T23:07:05.973Z,17.20
2022-12-25T23:09:32.851Z,14.20
2022-12-25T23:11:59.898Z,17.42
2022-12-25T23:14:39.083Z,16.02
2022-12-25T23:17:31.054Z,15.18
2022-12-25T23:20:18.136Z,13.35
2022-12-25T23:23:04.671Z,13.73
2022-12-25T23:25:50.400Z,14.43
2022-12-25T23:28:40.177Z,14.52
2022-12-25T23:31:07.415Z,14.37
2022-12-25T23:33:34.214Z,14.88
2022-12-25T23:36:01.160Z,13.48
2022-12-25T23:38:28.023Z,13.85
2022-12-25T23:40:54.748Z,16.30
2022-12-25T23:43:21.511Z,15.32
2022-12-25T23:45:48.238Z,19.17
2022-12-25T23:48:15.031Z,16.90
2022-12-25T23:50:41.752Z,19.13
2022-12-25T23:53:09.900Z,16.17
2022-12-25T23:55:36.718Z,17.05
2022-12-25T23:58:03.494Z,15.73
